Nearby METAR Reports

This page may be slow to load as it queries the National Weather Service for data.

KBIS - Bismarck, North Dakota, USA
Distance from station: S 10mi, 15km
Updated: Sat, 18-Jan-2020 10:52am CST
Clear
Clear
 Wind from WNW
Wind: WNW 31 mph , 50 km/h, Gust: 46 mph , 74 km/h
Temperature: -6°F , -21°C
Wind Chill: -34°F , -37°C
Dew Point: -17°F , -27°C
Humidity: 59%
Barometer: 30.27 inHg , 1025.1 hPa
Clouds: Clear
Visibility: 8 miles , 13 km
2020/01/18 16:52 KBIS 181652Z 30027G40KT 8SM CLR M21/M27 A3027 RMK AO2 PK WND 31040/1649 SLP299 T12111272 $
KDIK - Dickinson, North Dakota, USA
Distance from station: W 95mi, 154km
Updated: Sat, 18-Jan-2020 10:56am CST
Clear
Clear
 Wind from WNW
Wind: WNW 30 mph , 48 km/h, Gust: 41 mph , 67 km/h
Temperature: -8°F , -22°C
Wind Chill: -37°F , -38°C
Dew Point: -17°F , -27°C
Humidity: 64%
Barometer: 30.23 inHg , 1023.7 hPa
Clouds: Clear
Visibility: 10 miles , 16 km
2020/01/18 16:56 KDIK 181656Z AUTO 30026G36KT 10SM CLR M22/M27 A3023 RMK AO2 PK WND 29037/1610 SLP311 T12171272
 
KISN - Williston, North Dakota, USA
Distance from station: NNW 2mi, 2km
Updated: Fri, 18-Oct-2019 8:53am CDT
NOT Current

 
2019/10/18 13:53 KISN 181353Z AUTO RMK AO2 SLPNO PWINO FZRANO TSNO PNO $
KFAR - Fargo, North Dakota, USA
Distance from station: NNW 4mi, 7km
Updated: Sat, 18-Jan-2020 10:53am CST
Light snow, Overcast
Light snow, Overcast
 Wind from NW
Wind: NW 28 mph , 44 km/h, Gust: 35 mph , 56 km/h
Temperature: 3°F , -16°C
Wind Chill: -21°F , -29°C
Dew Point: -2°F , -19°C
Humidity: 78%
Barometer: 30.03 inHg , 1016.9 hPa
Summary: Light Snow
Clouds: Overcast
Visibility: 3/4 mile , 1.2 km
Cloud details: Few Clouds 2400 ft
Mostly cloudy 4200 ft
Overcast 6500 ft
2020/01/18 16:53 KFAR 181653Z 31024G30KT 3/4SM -SN FEW024 BKN042 OVC065 M16/M19 A3003 RMK AO2 PK WND 30030/1651 SLP191 P0000 T11611189 $
 
KGFK - Grand Forks, North Dakota, USA
Distance from station: NNW 76mi, 123km
Updated: Sat, 18-Jan-2020 10:53am CST
Snow, Blowing, Snow
Snow, Blowing, Snow
 Wind from NW
Wind: NW 28 mph , 44 km/h, Gust: 37 mph , 59 km/h
Temperature: 1°F , -17°C
Wind Chill: -24°F , -31°C
Dew Point: -2°F , -19°C
Humidity: 85%
Barometer: 30.00 inHg , 1015.9 hPa
Summary: Snow, Blowing
Clouds: Overcast
Visibility: 1/2 mile , 0.8 km
Cloud details: Mostly cloudy 2700 ft
Mostly cloudy 3400 ft
Overcast 4500 ft
2020/01/18 16:53 KGFK 181653Z 31024G32KT 1/2SM R35L/3000V5000FT SN BLSN BKN027 BKN034 OVC045 M17/M19 A3000 RMK AO2 PK WND 30036/1608 TWR VIS 3/4 SLP179 P0000 T11671194 $
KMOT - Minot, North Dakota, USA
Distance from station: E 109mi, 175km
Updated: Sat, 18-Jan-2020 10:54am CST
Clear
Clear
 Wind from W
Wind: W 31 mph , 50 km/h, Gust: 44 mph , 70 km/h
Temperature: -8°F , -22°C
Wind Chill: -37°F , -38°C
Dew Point: -17°F , -27°C
Humidity: 64%
Barometer: 30.21 inHg , 1023 hPa
Clouds: Clear
Visibility: 10 miles , 16 km
2020/01/18 16:54 KMOT 181654Z 28027G38KT 10SM CLR M22/M27 A3021 RMK AO2 PK WND 27039/1603 SLP283 DRSN T12221267 $